Laverton (Victoria), Victoria

12:40 AM AEDT on February 01, 2015 (GMT +1100)
Derrimut Heath Estate | Change Station
CLOSE
Current Station
Personal Weather Station
Location: Hoppers Crossing, VICTORIA
Elevation: 98 ft
Nearby Weather Stations

Elev 98 ft 37.86 °S, 144.70 °E | Updated 4 seconds ago

Light Drizzle
Light Drizzle
57.6 °F
Feels Like 57.6 °F
N
3.4
Wind Variable Wind from SW
Gusts 4.9 mph

Today
High -- | Low -- °F
--% Chance of Precip.
Yesterday
High -- | Low -- °F
Precip. -- in
6:33 AM 8:34 PM
Waxing Gibbous, 89% visible
Pressure 29.92 in
Visibility 5.6 miles
Clouds Few 600 ft
Mostly Cloudy 800 ft
Mostly Cloudy 4100 ft
Dew Point 56 °F
Humidity 95%
Rainfall 0.00 in
Snow Depth Not available.
UV 0.0 out of 12
Pollen Not available.
Air Quality Not available.
Flu Activity Not available.
SPECI YMML 311330Z 23011KT 9000 -DZ FEW006 BKN008 BKN041 13/12 Q1013 FM1400 21012KT 9999 -SHRA FEW010 BKN020 TEMPO 1330/1630 4000 SHRA BKN008

More Conditions Fewer Conditions

Pressure 29.92 in
Visibility 5.6 miles
Clouds Few 600 ft
Mostly Cloudy 800 ft
Mostly Cloudy 4100 ft
Dew Point 56 °F
Humidity 95%
Rainfall 0.00 in
Snow Depth Not available.
UV 0.0 out of 12
Pollen Not available.
Air Quality Not available.
Flu Activity Not available.
SPECI YMML 311330Z 23011KT 9000 -DZ FEW006 BKN008 BKN041 13/12 Q1013 FM1400 21012KT 9999 -SHRA FEW010 BKN020 TEMPO 1330/1630 4000 SHRA BKN008

More Conditions Fewer Conditions

10-Day Weather Forecast

Almanac

Astronomy

Feb. 01, 2015 Rise Set
Actual Time
Civil Twilight
Nautical Twilight
Astronomical Twilight
Moon
Length of Visible Light
Length of Day
Tomorrow will be .
, % of the Moon is Illuminated

Today's Extremes

Country Highs Country Lows

Community

WunderPhotos

Upload Photos

1,792,048 photos uploaded!

WunderBlogs® & News

Nearby

Air Quality

  Air Quality AQ Index Pollutant
Not available.

Snow Depth

Station Depth Elevation

Earthquake Activity

City Distance Mag. Time & Date
Minimum magnitude displayed is 2.5.

Coastal Water Temperatures

Place Temperature

Nearby Weather Stations